Time;durP1;ratioP1;P1;durP2;ratioP2;P2;SDS_P1;SDS_P2;PMS_P1;PMS_P2;Temp;Humidity;BMP_temperature;BMP_pressure;BME280_temperature;BME280_humidity;BME280_pressure;Samples;Min_cycle;Max_cycle;Signal;HPM_P1;HPM_P2
2023/07/13 00:00:24;;;;;;;;;;;17.80;99.90;;;;;;5045939;27;19927;-74
2023/07/13 00:02:49;;;;;;;;;;;17.80;99.90;;;;;;5058351;28;19932;-74
2023/07/13 00:05:15;;;;;;;;;;;17.80;99.90;;;;;;5062249;28;19999;-74
2023/07/13 00:07:40;;;;;;;;;;;17.80;99.90;;;;;;5058952;28;20286;-74
2023/07/13 00:10:07;;;;;;;;;;;17.80;99.90;;;;;;5078015;28;19936;-74
2023/07/13 00:12:33;;;;;;;;;;;17.80;99.90;;;;;;5061321;28;19928;-74
2023/07/13 00:15:00;;;;;;;;;;;17.70;99.90;;;;;;5061423;28;20053;-74
2023/07/13 00:17:26;;;;;;;;;;;17.80;99.90;;;;;;5062433;28;19927;-73
2023/07/13 00:19:52;;;;;;;;;;;17.70;99.90;;;;;;5078490;27;19928;-75
2023/07/13 00:22:19;;;;;;;;;;;17.70;99.90;;;;;;5080381;28;19986;-73
2023/07/13 00:24:45;;;;;;;;;;;17.70;99.90;;;;;;5063067;28;19932;-73
2023/07/13 00:27:11;;;;;;;;;;;17.70;99.90;;;;;;5060489;28;21223;-74
2023/07/13 00:29:37;;;;;;;;;;;17.70;99.90;;;;;;5059268;28;19939;-75
2023/07/13 00:32:03;;;;;;;;;;;17.70;99.90;;;;;;5054252;28;19928;-79
2023/07/13 00:34:29;;;;;;;;;;;17.70;99.90;;;;;;5062463;28;19943;-78
2023/07/13 00:36:54;;;;;;;;;;;17.70;99.90;;;;;;5082050;28;19928;-77
2023/07/13 00:39:20;;;;;;;;;;;17.70;99.90;;;;;;5084336;28;20435;-77
2023/07/13 00:41:47;;;;;;;;;;;17.70;99.90;;;;;;5060494;28;19943;-77
2023/07/13 00:44:14;;;;;;;;;;;17.70;99.90;;;;;;5057823;28;19928;-77
2023/07/13 00:46:39;;;;;;;;;;;17.80;99.90;;;;;;5061928;28;19936;-76
2023/07/13 00:49:06;;;;;;;;;;;17.70;99.90;;;;;;5063096;28;19928;-77
2023/07/13 00:51:53;;;;;;;;;;;17.70;99.90;;;;;;5064813;27;19939;-76
2023/07/13 00:54:22;;;;;;;;;;;17.70;99.90;;;;;;5085857;28;19939;-76
2023/07/13 00:56:57;;;;;;;;;;;17.70;99.90;;;;;;5082146;27;19935;-74
2023/07/13 00:59:50;;;;;;;;;;;17.80;99.90;;;;;;5085282;28;19955;-75
2023/07/13 01:02:25;;;;;;;;;;;17.80;99.90;;;;;;5082232;27;20838;-75
2023/07/13 01:05:00;;;;;;;;;;;17.80;99.90;;;;;;5039002;28;19931;-74
2023/07/13 01:07:25;;;;;;;;;;;17.80;99.90;;;;;;5064000;28;19924;-72
2023/07/13 01:10:01;;;;;;;;;;;17.80;99.90;;;;;;5085773;28;20046;-75
2023/07/13 01:12:27;;;;;;;;;;;17.80;99.90;;;;;;5081088;28;19931;-74
2023/07/13 01:15:00;;;;;;;;;;;17.80;99.90;;;;;;5081698;28;19928;-74
2023/07/13 01:17:26;;;;;;;;;;;17.80;99.90;;;;;;5062628;28;19976;-76
2023/07/13 01:19:51;;;;;;;;;;;17.80;99.90;;;;;;5067464;28;19949;-74
2023/07/13 01:22:18;;;;;;;;;;;17.80;99.90;;;;;;5084069;27;19928;-77
2023/07/13 01:24:45;;;;;;;;;;;17.80;99.90;;;;;;5066315;28;20286;-77
2023/07/13 01:27:12;;;;;;;;;;;17.80;99.90;;;;;;5065384;28;19982;-77
2023/07/13 01:29:43;;;;;;;;;;;17.90;99.90;;;;;;5072316;28;19963;-78
2023/07/13 01:32:10;;;;;;;;;;;17.90;99.90;;;;;;5062678;28;19932;-76
2023/07/13 01:34:37;;;;;;;;;;;17.90;99.90;;;;;;5083703;28;19981;-77
2023/07/13 01:37:03;;;;;;;;;;;17.90;99.90;;;;;;5064668;28;20018;-77
2023/07/13 01:39:29;;;;;;;;;;;17.90;99.90;;;;;;5062274;27;19981;-77
2023/07/13 01:41:54;;;;;;;;;;;17.90;99.90;;;;;;5064231;28;19936;-78
2023/07/13 01:44:20;;;;;;;;;;;17.90;99.90;;;;;;5083555;27;20788;-78
2023/07/13 01:46:46;;;;;;;;;;;17.90;99.90;;;;;;5064652;28;19932;-78
2023/07/13 01:49:11;;;;;;;;;;;18.00;99.90;;;;;;5063197;28;19924;-77
2023/07/13 01:51:37;;;;;;;;;;;18.00;99.90;;;;;;5062381;28;20008;-77
2023/07/13 01:54:02;;;;;;;;;;;18.00;99.90;;;;;;5084687;28;19924;-77
2023/07/13 01:56:28;;;;;;;;;;;18.00;99.90;;;;;;5046396;28;19935;-76
2023/07/13 01:58:54;;;;;;;;;;;18.00;99.90;;;;;;5064275;28;19955;-78
2023/07/13 02:01:19;;;;;;;;;;;18.00;99.90;;;;;;5062226;28;20070;-75
2023/07/13 02:03:46;;;;;;;;;;;18.00;99.90;;;;;;5079366;28;19928;-73
2023/07/13 02:06:12;;;;;;;;;;;17.90;99.90;;;;;;5079342;28;19936;-75
2023/07/13 02:08:38;;;;;;;;;;;17.90;99.90;;;;;;5062713;28;20247;-71
2023/07/13 02:11:03;;;;;;;;;;;17.90;99.90;;;;;;5077036;28;20322;-72
2023/07/13 02:13:29;;;;;;;;;;;17.90;99.90;;;;;;5061809;28;19932;-70
2023/07/13 02:15:55;;;;;;;;;;;17.90;99.90;;;;;;5061895;28;20297;-71
2023/07/13 02:18:20;;;;;;;;;;;18.40;99.90;;;;;;5062871;28;19989;-75
2023/07/13 02:20:46;;;;;;;;;;;17.90;99.90;;;;;;5061499;28;19935;-71
2023/07/13 02:23:11;;;;;;;;;;;17.90;99.90;;;;;;5077815;28;19927;-72
2023/07/13 02:25:37;;;;;;;;;;;17.90;99.90;;;;;;5078166;28;19938;-72
2023/07/13 02:28:03;;;;;;;;;;;17.80;99.90;;;;;;5062180;28;19971;-74
2023/07/13 02:30:29;;;;;;;;;;;17.80;99.90;;;;;;5060662;28;19928;-73
2023/07/13 02:32:55;;;;;;;;;;;17.80;99.90;;;;;;5060837;28;19981;-73
2023/07/13 02:35:21;;;;;;;;;;;17.80;99.90;;;;;;5061965;28;19928;-71
2023/07/13 02:37:46;;;;;;;;;;;17.80;99.90;;;;;;5059504;28;20020;-71
2023/07/13 02:40:12;;;;;;;;;;;17.70;99.90;;;;;;5061972;28;20420;-73
2023/07/13 02:42:38;;;;;;;;;;;17.70;99.90;;;;;;5057579;28;19939;-73
2023/07/13 02:45:04;;;;;;;;;;;17.70;99.90;;;;;;5061180;28;19936;-73
2023/07/13 02:47:31;;;;;;;;;;;17.70;99.90;;;;;;5062444;28;19924;-72
2023/07/13 02:49:57;;;;;;;;;;;17.70;99.90;;;;;;5060973;28;20973;-73
2023/07/13 02:52:22;;;;;;;;;;;17.70;99.90;;;;;;5079174;28;19924;-74
2023/07/13 02:54:48;;;;;;;;;;;17.70;99.90;;;;;;5063822;28;19924;-73
2023/07/13 02:57:16;;;;;;;;;;;17.60;99.90;;;;;;5076757;28;21213;-72
2023/07/13 02:59:41;;;;;;;;;;;17.60;99.90;;;;;;5077979;27;19975;-73
2023/07/13 03:02:08;;;;;;;;;;;17.60;99.90;;;;;;5062118;28;19932;-73
2023/07/13 03:04:35;;;;;;;;;;;17.50;99.90;;;;;;5052278;28;19924;-73
2023/07/13 03:07:00;;;;;;;;;;;17.50;99.90;;;;;;5079521;27;20007;-73
2023/07/13 03:09:26;;;;;;;;;;;17.50;99.90;;;;;;5082424;28;19931;-73
2023/07/13 03:11:55;;;;;;;;;;;17.50;99.90;;;;;;5046914;28;19928;-73
2023/07/13 03:14:21;;;;;;;;;;;17.50;99.90;;;;;;5079054;28;19928;-73
2023/07/13 03:16:47;;;;;;;;;;;17.40;99.90;;;;;;5043521;28;19939;-73
2023/07/13 03:19:13;;;;;;;;;;;17.40;99.90;;;;;;5057447;28;19970;-72
2023/07/13 03:21:38;;;;;;;;;;;17.40;99.90;;;;;;5078588;27;19928;-73
2023/07/13 03:24:04;;;;;;;;;;;17.40;99.90;;;;;;5080146;28;19932;-74
2023/07/13 03:26:29;;;;;;;;;;;17.40;99.90;;;;;;5060915;28;20439;-73
2023/07/13 03:28:55;;;;;;;;;;;17.40;99.90;;;;;;5059394;28;19932;-71
2023/07/13 03:31:22;;;;;;;;;;;17.40;99.90;;;;;;5043572;28;19978;-69
2023/07/13 03:33:48;;;;;;;;;;;17.40;99.90;;;;;;5079289;28;20367;-71
2023/07/13 03:36:16;;;;;;;;;;;17.40;99.90;;;;;;5062545;28;20010;-73
2023/07/13 03:38:41;;;;;;;;;;;17.40;99.90;;;;;;5068131;28;20483;-72
2023/07/13 03:41:07;;;;;;;;;;;17.40;99.90;;;;;;5058584;28;20022;-72
2023/07/13 03:43:33;;;;;;;;;;;17.40;99.90;;;;;;5047366;28;19928;-72
2023/07/13 03:45:58;;;;;;;;;;;17.40;99.90;;;;;;5061173;28;19935;-72
2023/07/13 03:48:24;;;;;;;;;;;17.40;99.90;;;;;;5060608;28;19928;-72
2023/07/13 03:50:49;;;;;;;;;;;17.40;99.90;;;;;;5078533;28;19934;-74
2023/07/13 03:53:15;;;;;;;;;;;17.30;99.90;;;;;;5066740;28;20069;-74
2023/07/13 03:55:44;;;;;;;;;;;17.30;99.90;;;;;;5055363;28;19924;-73
2023/07/13 03:58:28;;;;;;;;;;;17.30;99.90;;;;;;5063234;28;19928;-73
2023/07/13 04:00:54;;;;;;;;;;;17.30;99.90;;;;;;5079734;28;19928;-73
2023/07/13 04:03:20;;;;;;;;;;;17.40;99.90;;;;;;5078217;28;19939;-71
2023/07/13 04:05:46;;;;;;;;;;;17.40;99.90;;;;;;5060270;28;20018;-71
2023/07/13 04:08:12;;;;;;;;;;;17.40;99.90;;;;;;5062195;28;19924;-71
2023/07/13 04:10:38;;;;;;;;;;;17.40;99.90;;;;;;5081596;28;20299;-73
2023/07/13 04:13:04;;;;;;;;;;;17.40;99.90;;;;;;5078117;28;19924;-74
2023/07/13 04:15:31;;;;;;;;;;;17.40;99.90;;;;;;5077903;28;21059;-73
2023/07/13 04:17:56;;;;;;;;;;;17.40;99.90;;;;;;5062629;28;20379;-72
2023/07/13 04:20:23;;;;;;;;;;;17.40;99.90;;;;;;5061341;28;19924;-71
2023/07/13 04:22:49;;;;;;;;;;;17.40;99.90;;;;;;5063791;28;19952;-74
2023/07/13 04:25:15;;;;;;;;;;;17.50;99.90;;;;;;5072006;28;20468;-75
2023/07/13 04:27:40;;;;;;;;;;;17.50;99.90;;;;;;5049962;28;19931;-75
2023/07/13 04:30:06;;;;;;;;;;;17.50;99.90;;;;;;5059116;28;19939;-75
2023/07/13 04:32:32;;;;;;;;;;;17.50;99.90;;;;;;5063673;28;20294;-74
2023/07/13 04:35:01;;;;;;;;;;;17.50;99.90;;;;;;5077161;28;19932;-75
2023/07/13 04:37:30;;;;;;;;;;;17.50;99.90;;;;;;5081053;28;20001;-77
2023/07/13 04:40:03;;;;;;;;;;;17.50;99.90;;;;;;5062072;28;20366;-77
2023/07/13 04:43:05;;;;;;;;;;;16.90;99.90;;;;;;5058098;28;19927;-74
2023/07/13 04:45:44;;;;;;;;;;;17.50;99.90;;;;;;5079825;28;20557;-75
2023/07/13 04:48:34;;;;;;;;;;;17.50;99.90;;;;;;5035952;28;19925;-75
2023/07/13 04:51:01;;;;;;;;;;;17.50;99.90;;;;;;5033020;28;20418;-74
2023/07/13 04:53:37;;;;;;;;;;;17.50;99.90;;;;;;4967898;28;20454;-77
2023/07/13 04:56:09;;;;;;;;;;;17.50;99.90;;;;;;5018974;28;19982;-75
2023/07/13 04:58:44;;;;;;;;;;;17.50;99.90;;;;;;5022630;28;20795;-73
2023/07/13 05:01:17;;;;;;;;;;;17.60;99.90;;;;;;5021640;28;19932;-74
2023/07/13 05:03:51;;;;;;;;;;;17.60;99.90;;;;;;5038688;28;19935;-74
2023/07/13 05:06:20;;;;;;;;;;;17.60;99.90;;;;;;5021672;28;19932;-75
2023/07/13 05:08:46;;;;;;;;;;;17.70;99.90;;;;;;5001903;28;19929;-75
2023/07/13 05:11:11;;;;;;;;;;;17.70;99.90;;;;;;5021252;28;20349;-75
2023/07/13 05:13:37;;;;;;;;;;;17.70;99.90;;;;;;5040428;28;19924;-75
2023/07/13 05:16:04;;;;;;;;;;;17.70;99.90;;;;;;5019979;28;19986;-76
2023/07/13 05:18:30;;;;;;;;;;;17.80;99.90;;;;;;5042968;28;19932;-76
2023/07/13 05:21:00;;;;;;;;;;;17.80;99.90;;;;;;5078143;28;19994;-75
2023/07/13 05:23:25;;;;;;;;;;;17.80;99.90;;;;;;5083201;28;20295;-76
2023/07/13 05:25:51;;;;;;;;;;;17.80;99.90;;;;;;5080434;27;19966;-75
2023/07/13 05:28:17;;;;;;;;;;;17.90;99.90;;;;;;5080722;28;19931;-75
2023/07/13 05:30:49;;;;;;;;;;;17.90;99.90;;;;;;5054165;28;20351;-75
2023/07/13 05:33:14;;;;;;;;;;;17.90;99.90;;;;;;5062522;28;19951;-76
2023/07/13 05:35:40;;;;;;;;;;;18.00;99.90;;;;;;5059653;28;19932;-76
2023/07/13 05:38:06;;;;;;;;;;;18.00;99.90;;;;;;5062102;28;19963;-76
2023/07/13 05:40:32;;;;;;;;;;;18.10;99.90;;;;;;5060287;28;19932;-75
2023/07/13 05:42:57;;;;;;;;;;;18.10;99.90;;;;;;5056630;28;19973;-75
2023/07/13 05:45:23;;;;;;;;;;;18.10;99.90;;;;;;5080156;27;20406;-77
2023/07/13 05:47:48;;;;;;;;;;;18.20;99.90;;;;;;5064203;28;20758;-75
2023/07/13 05:50:14;;;;;;;;;;;18.20;99.90;;;;;;5061172;28;19993;-76
2023/07/13 05:52:40;;;;;;;;;;;18.20;99.90;;;;;;5050290;28;19924;-77
2023/07/13 05:55:05;;;;;;;;;;;18.30;99.90;;;;;;5080349;28;20064;-76
2023/07/13 05:57:31;;;;;;;;;;;18.30;99.90;;;;;;5059882;28;20504;-75
2023/07/13 05:59:57;;;;;;;;;;;18.40;99.90;;;;;;5078918;27;19974;-75
2023/07/13 06:02:23;;;;;;;;;;;18.50;99.90;;;;;;5058011;28;20008;-76
2023/07/13 06:04:48;;;;;;;;;;;18.50;99.90;;;;;;5081006;28;19924;-75
2023/07/13 06:07:16;;;;;;;;;;;18.60;99.90;;;;;;5062577;28;20760;-76
2023/07/13 06:09:41;;;;;;;;;;;18.60;99.90;;;;;;5065445;28;20325;-76
2023/07/13 06:12:07;;;;;;;;;;;18.00;99.90;;;;;;5062982;28;19936;-78
2023/07/13 06:14:33;;;;;;;;;;;18.80;99.90;;;;;;5061598;28;20120;-77
2023/07/13 06:16:58;;;;;;;;;;;18.90;99.90;;;;;;5078575;28;19927;-76
2023/07/13 06:19:24;;;;;;;;;;;18.90;99.90;;;;;;5045181;28;19971;-76
2023/07/13 06:21:49;;;;;;;;;;;19.00;99.90;;;;;;5080907;27;19932;-77
2023/07/13 06:24:15;;;;;;;;;;;19.00;99.90;;;;;;5080578;27;19932;-79
2023/07/13 06:26:41;;;;;;;;;;;19.10;99.90;;;;;;5061672;28;19928;-78
2023/07/13 06:29:06;;;;;;;;;;;19.20;99.90;;;;;;5044576;28;20383;-78
2023/07/13 06:31:32;;;;;;;;;;;19.30;99.90;;;;;;5063205;28;20036;-78
2023/07/13 06:33:57;;;;;;;;;;;19.40;99.90;;;;;;5081646;27;20417;-75
2023/07/13 06:36:23;;;;;;;;;;;19.40;99.90;;;;;;5060814;28;19924;-79
2023/07/13 06:38:49;;;;;;;;;;;19.50;99.90;;;;;;5047816;28;19942;-78
2023/07/13 06:41:14;;;;;;;;;;;19.60;99.90;;;;;;5055989;28;20374;-78
2023/07/13 06:43:40;;;;;;;;;;;19.70;99.90;;;;;;5064176;28;20033;-75
2023/07/13 06:46:07;;;;;;;;;;;19.70;99.90;;;;;;5061061;28;19928;-74
2023/07/13 06:48:33;;;;;;;;;;;19.60;1.00;;;;;;5058134;28;19992;-75
2023/07/13 06:50:59;;;;;;;;;;;19.50;53.50;;;;;;5062081;28;20386;-77
2023/07/13 06:53:24;;;;;;;;;;;19.60;58.20;;;;;;5061712;28;20465;-78
2023/07/13 06:55:50;;;;;;;;;;;19.60;1.00;;;;;;5062244;28;19931;-77
2023/07/13 06:58:17;;;;;;;;;;;19.80;13.00;;;;;;5058599;28;19935;-76
2023/07/13 07:00:43;;;;;;;;;;;19.90;99.90;;;;;;5061843;28;19967;-77
2023/07/13 07:03:08;;;;;;;;;;;20.10;1.00;;;;;;5061534;28;19928;-76
2023/07/13 07:05:34;;;;;;;;;;;20.30;99.90;;;;;;5052482;28;19993;-75
2023/07/13 07:07:59;;;;;;;;;;;20.20;99.90;;;;;;5079897;28;20499;-77
2023/07/13 07:10:25;;;;;;;;;;;20.20;99.90;;;;;;5064351;28;19928;-77
2023/07/13 07:12:51;;;;;;;;;;;20.20;1.00;;;;;;5060045;28;19936;-76
2023/07/13 07:15:18;;;;;;;;;;;20.20;1.00;;;;;;5058426;28;19938;-80
2023/07/13 07:17:44;;;;;;;;;;;20.20;1.00;;;;;;5061616;28;19971;-75
2023/07/13 07:20:10;;;;;;;;;;;20.10;1.00;;;;;;5047131;28;20023;-80
2023/07/13 07:22:35;;;;;;;;;;;20.30;99.90;;;;;;5063450;28;19932;-75
2023/07/13 07:25:01;;;;;;;;;;;20.30;99.90;;;;;;5062047;28;20060;-75
2023/07/13 07:27:27;;;;;;;;;;;20.30;99.90;;;;;;5081320;28;19940;-78
2023/07/13 07:29:52;;;;;;;;;;;20.50;99.90;;;;;;5063678;28;19928;-75
2023/07/13 07:32:19;;;;;;;;;;;20.50;99.90;;;;;;5064100;28;20028;-75
2023/07/13 07:34:44;;;;;;;;;;;20.60;99.90;;;;;;5067794;28;20957;-81
2023/07/13 07:37:11;;;;;;;;;;;20.60;99.90;;;;;;5068412;28;19931;-75
2023/07/13 07:39:37;;;;;;;;;;;20.60;99.90;;;;;;5062434;28;20015;-75
2023/07/13 07:42:03;;;;;;;;;;;20.60;99.90;;;;;;5061553;28;19966;-75
2023/07/13 07:44:30;;;;;;;;;;;20.70;99.90;;;;;;5078972;28;20030;-75
2023/07/13 07:46:56;;;;;;;;;;;20.80;99.90;;;;;;5062612;28;19959;-76
2023/07/13 07:49:21;;;;;;;;;;;20.90;99.90;;;;;;5078305;28;20370;-78
2023/07/13 07:51:47;;;;;;;;;;;21.10;99.90;;;;;;5063894;28;20020;-76
2023/07/13 07:54:14;;;;;;;;;;;21.10;61.40;;;;;;5081298;28;19928;-76
2023/07/13 07:56:40;;;;;;;;;;;21.20;12.00;;;;;;5060800;28;19928;-75
2023/07/13 07:59:06;;;;;;;;;;;21.30;1.00;;;;;;5058243;28;20012;-78
2023/07/13 08:01:31;;;;;;;;;;;21.30;1.00;;;;;;5081587;28;20480;-78
2023/07/13 08:03:57;;;;;;;;;;;21.20;99.90;;;;;;5061181;28;20101;-76
2023/07/13 08:06:23;;;;;;;;;;;21.30;99.90;;;;;;5061035;28;19931;-74
2023/07/13 08:08:48;;;;;;;;;;;21.40;99.90;;;;;;5060793;28;21754;-76
2023/07/13 08:11:14;;;;;;;;;;;21.60;99.90;;;;;;5084621;28;19928;-75
2023/07/13 08:13:40;;;;;;;;;;;21.60;94.30;;;;;;5045065;28;19928;-80
2023/07/13 08:16:06;;;;;;;;;;;21.80;66.20;;;;;;5061418;28;19928;-78
2023/07/13 08:18:31;;;;;;;;;;;21.70;1.00;;;;;;5064951;28;19927;-74
2023/07/13 08:20:58;;;;;;;;;;;21.70;1.00;;;;;;5077212;28;19927;-76
2023/07/13 08:23:24;;;;;;;;;;;21.70;99.90;;;;;;5050129;28;19928;-76
2023/07/13 08:25:54;;;;;;;;;;;21.70;99.90;;;;;;5082186;27;19932;-74
2023/07/13 08:28:20;;;;;;;;;;;21.80;99.90;;;;;;5065641;28;19924;-74
2023/07/13 08:30:48;;;;;;;;;;;21.90;99.90;;;;;;5071658;28;20410;-82
2023/07/13 08:33:15;;;;;;;;;;;21.80;99.90;;;;;;5078353;28;20438;-79
2023/07/13 08:35:40;;;;;;;;;;;22.00;99.90;;;;;;5082332;28;19947;-78
2023/07/13 08:38:06;;;;;;;;;;;22.00;99.90;;;;;;5082113;28;20194;-83
2023/07/13 08:40:33;;;;;;;;;;;22.10;99.90;;;;;;5079462;28;20006;-78
2023/07/13 08:42:59;;;;;;;;;;;22.20;99.90;;;;;;5080655;28;19924;-80
2023/07/13 08:45:24;;;;;;;;;;;22.20;99.90;;;;;;5082466;28;20309;-87
2023/07/13 08:48:10;;;;;;;;;;;22.20;99.90;;;;;;5098975;28;20004;-79
2023/07/13 08:50:43;;;;;;;;;;;22.20;99.90;;;;;;5080188;28;20017;-81
2023/07/13 08:53:11;;;;;;;;;;;22.20;99.90;;;;;;5081392;28;19966;-78
2023/07/13 08:55:38;;;;;;;;;;;22.30;99.90;;;;;;5078965;28;19928;-84
2023/07/13 08:58:14;;;;;;;;;;;22.50;75.40;;;;;;5079278;28;19928;-79
2023/07/13 09:00:43;;;;;;;;;;;22.50;36.50;;;;;;5060976;28;19927;-79
2023/07/13 09:03:16;;;;;;;;;;;22.70;21.40;;;;;;5079704;28;19932;-82
2023/07/13 09:05:42;;;;;;;;;;;23.00;3.70;;;;;;5079430;28;19951;-77
2023/07/13 09:08:27;;;;;;;;;;;23.10;1.00;;;;;;5086790;28;20027;-73
2023/07/13 09:10:59;;;;;;;;;;;23.10;1.00;;;;;;5077676;28;19932;-72
2023/07/13 09:13:24;;;;;;;;;;;23.30;1.00;;;;;;5064471;28;19928;-77
2023/07/13 09:15:50;;;;;;;;;;;23.40;1.00;;;;;;5066070;28;19974;-73
2023/07/13 09:18:22;;;;;;;;;;;23.30;1.00;;;;;;5065403;28;20294;-73
2023/07/13 09:20:50;;;;;;;;;;;23.20;1.00;;;;;;5086586;28;19967;-78
2023/07/13 09:23:18;;;;;;;;;;;23.30;1.00;;;;;;5069929;28;19924;-75
2023/07/13 09:25:45;;;;;;;;;;;23.40;1.00;;;;;;5065802;28;19928;-72
2023/07/13 09:28:12;;;;;;;;;;;23.30;1.00;;;;;;5073804;28;19932;-78
2023/07/13 09:30:55;;;;;;;;;;;23.10;1.00;;;;;;5066130;28;19935;-77
2023/07/13 09:33:21;;;;;;;;;;;23.10;1.00;;;;;;5078609;27;20238;-73
2023/07/13 09:35:46;;;;;;;;;;;22.80;1.00;;;;;;5065732;28;19928;-73
2023/07/13 09:38:14;;;;;;;;;;;22.50;1.00;;;;;;5059943;28;19932;-73
2023/07/13 09:40:43;;;;;;;;;;;22.60;1.00;;;;;;5087176;28;19984;-74
2023/07/13 09:43:12;;;;;;;;;;;22.80;1.00;;;;;;5073846;28;19999;-76
2023/07/13 09:45:39;;;;;;;;;;;23.10;1.00;;;;;;5070693;28;19928;-74
2023/07/13 09:48:06;;;;;;;;;;;23.50;1.00;;;;;;5072282;28;19923;-77
2023/07/13 09:50:32;;;;;;;;;;;23.80;1.00;;;;;;5071652;28;20243;-74
2023/07/13 09:52:59;;;;;;;;;;;23.80;1.00;;;;;;5078343;28;19931;-75
2023/07/13 09:55:28;;;;;;;;;;;24.00;1.00;;;;;;5089573;28;19932;-78
2023/07/13 09:57:54;;;;;;;;;;;24.20;1.00;;;;;;5092843;28;19967;-74
2023/07/13 10:00:29;;;;;;;;;;;24.20;1.00;;;;;;5069330;28;20010;-72
2023/07/13 10:03:05;;;;;;;;;;;24.10;1.00;;;;;;5085685;27;20040;-77
2023/07/13 10:05:41;;;;;;;;;;;24.00;1.00;;;;;;5061995;28;19920;-74
2023/07/13 10:08:15;;;;;;;;;;;24.00;1.00;;;;;;5070811;28;19940;-73
2023/07/13 10:10:40;;;;;;;;;;;23.80;1.00;;;;;;5070121;28;20321;-72
2023/07/13 10:13:22;;;;;;;;;;;23.90;1.00;;;;;;5051406;28;19934;-72
2023/07/13 10:15:49;;;;;;;;;;;23.90;1.00;;;;;;5079409;28;19930;-72
2023/07/13 10:18:15;;;;;;;;;;;24.00;1.00;;;;;;5085537;27;20034;-76
2023/07/13 10:20:41;;;;;;;;;;;24.10;1.00;;;;;;5071392;28;19998;-73
2023/07/13 10:23:12;;;;;;;;;;;23.90;1.00;;;;;;5068452;28;19935;-74
2023/07/13 10:25:40;;;;;;;;;;;23.80;1.00;;;;;;5069000;28;20326;-74
2023/07/13 10:28:13;;;;;;;;;;;23.80;1.00;;;;;;5077205;28;19977;-73
2023/07/13 10:30:41;;;;;;;;;;;24.00;1.00;;;;;;5069129;28;19989;-76
2023/07/13 10:33:10;;;;;;;;;;;23.90;1.00;;;;;;5066852;28;19928;-72
2023/07/13 10:35:37;;;;;;;;;;;23.90;1.00;;;;;;5067860;27;19927;-74
2023/07/13 10:38:23;;;;;;;;;;;24.00;1.00;;;;;;5056465;28;20550;-73
2023/07/13 10:40:56;;;;;;;;;;;24.00;1.00;;;;;;5074770;27;19932;-75
2023/07/13 10:43:26;;;;;;;;;;;24.10;1.00;;;;;;5060175;28;20370;-72
2023/07/13 10:45:54;;;;;;;;;;;24.20;1.00;;;;;;5080902;28;20253;-73
2023/07/13 10:48:21;;;;;;;;;;;24.30;1.00;;;;;;5061943;28;19928;-73
2023/07/13 10:50:48;;;;;;;;;;;24.50;1.00;;;;;;5062534;28;20073;-72
2023/07/13 10:53:18;;;;;;;;;;;24.60;1.00;;;;;;5081086;27;19928;-74
2023/07/13 10:55:53;;;;;;;;;;;24.60;1.00;;;;;;5071657;28;19931;-74
2023/07/13 10:58:23;;;;;;;;;;;25.00;1.00;;;;;;5068962;28;20394;-72
2023/07/13 11:00:53;;;;;;;;;;;24.70;1.00;;;;;;5065683;28;19940;-72
2023/07/13 11:03:20;;;;;;;;;;;24.80;1.00;;;;;;5069570;28;20587;-73
2023/07/13 11:05:48;;;;;;;;;;;24.70;1.00;;;;;;5085707;28;19935;-73
2023/07/13 11:08:16;;;;;;;;;;;24.90;1.00;;;;;;5095567;28;19930;-72
2023/07/13 11:10:51;;;;;;;;;;;24.80;1.00;;;;;;5075991;28;19928;-72
2023/07/13 11:13:35;;;;;;;;;;;24.80;1.00;;;;;;5074243;28;19954;-73
2023/07/13 11:16:11;;;;;;;;;;;24.90;1.00;;;;;;5088419;28;19927;-73
2023/07/13 11:18:37;;;;;;;;;;;25.00;1.00;;;;;;5055962;28;19924;-76
2023/07/13 11:21:22;;;;;;;;;;;24.90;1.00;;;;;;5065818;28;20386;-72
2023/07/13 11:24:01;;;;;;;;;;;24.90;1.00;;;;;;5068996;28;20383;-72
2023/07/13 11:26:45;;;;;;;;;;;24.80;1.00;;;;;;5052977;28;19934;-73
2023/07/13 11:29:17;;;;;;;;;;;24.90;1.00;;;;;;5064650;28;20015;-75
2023/07/13 11:31:43;;;;;;;;;;;24.80;1.00;;;;;;5070167;28;19931;-75
2023/07/13 11:34:13;;;;;;;;;;;24.80;1.00;;;;;;5066208;28;19924;-74
2023/07/13 11:36:42;;;;;;;;;;;25.10;1.00;;;;;;5063342;28;19951;-75
2023/07/13 11:39:30;;;;;;;;;;;25.40;1.00;;;;;;5065879;28;20311;-79
2023/07/13 11:41:57;;;;;;;;;;;24.90;1.00;;;;;;5064124;28;19968;-76
2023/07/13 11:44:24;;;;;;;;;;;24.80;1.00;;;;;;5062083;28;19967;-75
2023/07/13 11:46:51;;;;;;;;;;;24.80;1.00;;;;;;5061264;28;19935;-79
2023/07/13 11:49:18;;;;;;;;;;;24.60;1.00;;;;;;5067321;28;20003;-78
2023/07/13 11:51:45;;;;;;;;;;;24.50;1.00;;;;;;5077422;28;20746;-75
2023/07/13 11:54:20;;;;;;;;;;;24.40;1.00;;;;;;5075031;28;21595;-81
2023/07/13 11:56:46;;;;;;;;;;;24.20;1.00;;;;;;5075885;28;19939;-76
2023/07/13 11:59:12;;;;;;;;;;;24.20;1.00;;;;;;5075484;28;19927;-80
2023/07/13 12:01:43;;;;;;;;;;;24.20;1.00;;;;;;5080912;28;19977;-75
2023/07/13 12:04:21;;;;;;;;;;;24.20;1.00;;;;;;5084466;28;20030;-79
2023/07/13 12:06:47;;;;;;;;;;;24.30;1.00;;;;;;5075466;28;19971;-77
2023/07/13 12:09:13;;;;;;;;;;;24.30;1.00;;;;;;5057299;28;19979;-76
2023/07/13 12:11:42;;;;;;;;;;;24.40;1.00;;;;;;5081770;28;20453;-82
2023/07/13 12:14:13;;;;;;;;;;;24.60;1.00;;;;;;5080130;28;19934;-82
2023/07/13 12:16:39;;;;;;;;;;;24.70;1.00;;;;;;5088556;28;19935;-76
2023/07/13 12:19:13;;;;;;;;;;;24.10;1.00;;;;;;5086823;28;19928;-76
2023/07/13 12:21:40;;;;;;;;;;;24.30;1.00;;;;;;5058034;28;19928;-80
2023/07/13 12:24:13;;;;;;;;;;;24.30;1.00;;;;;;5081537;28;19935;-78
2023/07/13 12:26:39;;;;;;;;;;;24.30;1.00;;;;;;5082500;28;20039;-78
2023/07/13 12:29:06;;;;;;;;;;;24.30;1.00;;;;;;5057579;28;20444;-76
2023/07/13 12:31:34;;;;;;;;;;;24.00;1.00;;;;;;5086243;28;19931;-76
2023/07/13 12:34:06;;;;;;;;;;;23.70;1.00;;;;;;5084137;28;19924;-75
2023/07/13 12:36:33;;;;;;;;;;;23.70;1.00;;;;;;5081350;28;20246;-76
2023/07/13 12:39:25;;;;;;;;;;;23.60;1.00;;;;;;5072834;28;21720;-76
2023/07/13 12:41:52;;;;;;;;;;;23.40;1.00;;;;;;5072250;28;19931;-76
2023/07/13 12:44:18;;;;;;;;;;;23.20;1.00;;;;;;5073259;28;20316;-76
2023/07/13 12:46:53;;;;;;;;;;;23.20;1.00;;;;;;5078683;28;20046;-78
2023/07/13 12:49:22;;;;;;;;;;;23.30;1.00;;;;;;5084441;28;19934;-77
2023/07/13 12:51:50;;;;;;;;;;;23.70;1.00;;;;;;5071452;28;20298;-75
2023/07/13 12:54:16;;;;;;;;;;;23.90;1.00;;;;;;5070405;28;20868;-79
2023/07/13 12:56:42;;;;;;;;;;;24.00;1.00;;;;;;5066543;28;19974;-77
2023/07/13 12:59:14;;;;;;;;;;;24.20;1.00;;;;;;5089102;28;19959;-76
2023/07/13 13:01:41;;;;;;;;;;;24.10;1.00;;;;;;5090583;28;19931;-76
2023/07/13 13:04:11;;;;;;;;;;;24.00;1.00;;;;;;5070203;28;19924;-76
2023/07/13 13:06:37;;;;;;;;;;;24.00;1.00;;;;;;5073310;28;19928;-77
2023/07/13 13:09:03;;;;;;;;;;;24.00;1.00;;;;;;5069387;28;19927;-77
2023/07/13 13:11:30;;;;;;;;;;;24.10;1.00;;;;;;5073560;28;19924;-76
2023/07/13 13:13:56;;;;;;;;;;;24.30;1.00;;;;;;5069745;28;19939;-77
2023/07/13 13:16:35;;;;;;;;;;;24.50;1.00;;;;;;5068746;28;19928;-77
2023/07/13 13:19:23;;;;;;;;;;;24.50;1.00;;;;;;5067038;28;20379;-76
2023/07/13 13:21:52;;;;;;;;;;;24.70;1.00;;;;;;5054469;28;19931;-77
2023/07/13 13:24:22;;;;;;;;;;;24.70;1.00;;;;;;5051191;28;19932;-76
2023/07/13 13:26:48;;;;;;;;;;;24.60;1.00;;;;;;5053663;28;19934;-75
2023/07/13 13:29:16;;;;;;;;;;;24.20;1.00;;;;;;5065102;28;19977;-77
2023/07/13 13:31:42;;;;;;;;;;;24.00;1.00;;;;;;5088494;27;20276;-77
2023/07/13 13:34:11;;;;;;;;;;;24.20;1.00;;;;;;5072839;28;20602;-75
2023/07/13 13:36:38;;;;;;;;;;;24.40;1.00;;;;;;5074601;28;19924;-77
2023/07/13 13:39:06;;;;;;;;;;;24.30;1.00;;;;;;5071152;28;19928;-78
2023/07/13 13:41:32;;;;;;;;;;;24.50;1.00;;;;;;5070242;28;19935;-78
2023/07/13 13:43:57;;;;;;;;;;;24.50;1.00;;;;;;5086585;28;19927;-76
2023/07/13 13:46:24;;;;;;;;;;;24.20;1.00;;;;;;5071814;28;19935;-77
2023/07/13 13:48:50;;;;;;;;;;;24.10;1.00;;;;;;5074587;28;20455;-81
2023/07/13 13:51:18;;;;;;;;;;;23.80;1.00;;;;;;5066372;28;19924;-81
2023/07/13 13:53:45;;;;;;;;;;;23.60;1.00;;;;;;5071515;28;20022;-76
2023/07/13 13:56:11;;;;;;;;;;;24.00;1.00;;;;;;5071637;28;19997;-76
2023/07/13 13:58:37;;;;;;;;;;;24.30;1.00;;;;;;5074945;28;19936;-80
2023/07/13 14:01:02;;;;;;;;;;;24.50;1.00;;;;;;5071201;28;19930;-77
2023/07/13 14:03:28;;;;;;;;;;;24.50;1.00;;;;;;5075236;28;20339;-78
2023/07/13 14:05:54;;;;;;;;;;;24.40;1.00;;;;;;5075017;28;19931;-76
2023/07/13 14:08:20;;;;;;;;;;;24.50;1.00;;;;;;5069951;28;19928;-78
2023/07/13 14:10:47;;;;;;;;;;;24.40;1.00;;;;;;5069152;28;19928;-75
2023/07/13 14:13:18;;;;;;;;;;;24.50;1.00;;;;;;5086396;27;20010;-76
2023/07/13 14:15:44;;;;;;;;;;;24.70;1.00;;;;;;5062750;28;19928;-80
2023/07/13 14:18:10;;;;;;;;;;;24.30;1.00;;;;;;5063388;28;20383;-76
2023/07/13 14:20:36;;;;;;;;;;;24.30;1.00;;;;;;5074647;28;19942;-86
2023/07/13 14:23:01;;;;;;;;;;;24.30;1.00;;;;;;5073818;28;20449;-82
2023/07/13 14:25:27;;;;;;;;;;;24.00;1.00;;;;;;5076614;28;19932;-87